KSLN/SLN METAR and TAF weather

Enter ICAO airport designator
Station Type Date Time Source
KSLN METAR 2019/02/16 16:53 UTC NOAA

KSLN 161653Z 10008KT 10SM OVC017 M08/M12 A2993 RMK AO2 SLP156 T10781117


Station Type Date Time Source
KSLN Decoded METAR 2019/02/16 16:53 UTC NOAA

SALINA MUNICIPAL AIRPORT, KS, United States (KSLN) 38-47N 97-39W 385M
Feb 16, 2019 - 11:53 AM EST / 2019.02.16 1653 UTC
Wind: from the E (100 degrees) at 9 MPH (8 KT):0
Visibility: 10 mile(s):0
Sky conditions: overcast
Temperature: 18.0 F (-7.8 C)
Windchill: 6 F (-14 C):1
Dew Point: 10.9 F (-11.7 C)
Relative Humidity: 73%
Pressure (altimeter): 29.93 in. Hg (1013 hPa)
ob: KSLN 161653Z 10008KT 10SM OVC017 M08/M12 A2993 RMK AO2 SLP156 T10781117
cycle: 17

Station Type Date Time Source
KSLN TAF 2019/02/16 12:22 UTC NOAA

TAF KSLN 161120Z 1612/1712 07006KT P6SM OVC025
FM161500 10008KT P6SM OVC030
FM161900 11009KT 4SM -FZDZSN BR OVC022
FM170000 06007KT 3SM -FZDZSN BR OVC009
FM170300 12008KT P6SM OVC009


Example: see airport list